<?xml version="1.0" encoding="UTF-8"?>
<gpx xmlns="http://www.topografix.com/GPX/1/1" xmlns:gpsies="http://www.gpsies.com/GPX/1/0" creator="GPSies http://www.gpsies.com - Effort_6918646151" version="1.1" xmlns:xsi="http://www.w3.org/2001/XMLSchema-instance" xsi:schemaLocation="http://www.topografix.com/GPX/1/1 http://www.topografix.com/GPX/1/1/gpx.xsd http://www.gpsies.com/GPX/1/0 http://www.gpsies.com/gpsies.xsd">
  <metadata>
    <name>Effort_6918646151</name>
    <link href="http://www.gpsies.com/">
      <text>Effort_6918646151 on GPSies.com</text>
    </link>
    <time>2015-04-29T18:41:01Z</time>
  </metadata>
  <trk>
    <name>Effort_6918646151 on GPSies.com</name>
    <trkseg>
      <trkpt lat="57.67387000" lon="12.01792000">
        <ele>140.00000</ele>
        <time>2015-04-28T18:15:27Z</time>
      </trkpt>
      <trkpt lat="57.67390000" lon="12.01777000">
        <ele>140.00000</ele>
        <time>2015-04-28T18:15:30Z</time>
      </trkpt>
      <trkpt lat="57.67389000" lon="12.01756000">
        <ele>140.00000</ele>
        <time>2015-04-28T18:15:33Z</time>
      </trkpt>
      <trkpt lat="57.67392000" lon="12.01740000">
        <ele>138.00000</ele>
        <time>2015-04-28T18:15:36Z</time>
      </trkpt>
      <trkpt lat="57.67402000" lon="12.01734000">
        <ele>138.00000</ele>
        <time>2015-04-28T18:15:42Z</time>
      </trkpt>
      <trkpt lat="57.67408000" lon="12.01722000">
        <ele>138.00000</ele>
        <time>2015-04-28T18:15:45Z</time>
      </trkpt>
      <trkpt lat="57.67413000" lon="12.01702000">
        <ele>137.00000</ele>
        <time>2015-04-28T18:15:48Z</time>
      </trkpt>
      <trkpt lat="57.67413000" lon="12.01687000">
        <ele>136.00000</ele>
        <time>2015-04-28T18:15:51Z</time>
      </trkpt>
      <trkpt lat="57.67413000" lon="12.01673000">
        <ele>136.00000</ele>
        <time>2015-04-28T18:15:54Z</time>
      </trkpt>
      <trkpt lat="57.67420000" lon="12.01663000">
        <ele>136.00000</ele>
        <time>2015-04-28T18:15:57Z</time>
      </trkpt>
      <trkpt lat="57.67426000" lon="12.01666000">
        <ele>136.00000</ele>
        <time>2015-04-28T18:16:00Z</time>
      </trkpt>
      <trkpt lat="57.67441000" lon="12.01667000">
        <ele>136.00000</ele>
        <time>2015-04-28T18:16:04Z</time>
      </trkpt>
      <trkpt lat="57.67447000" lon="12.01661000">
        <ele>136.00000</ele>
        <time>2015-04-28T18:16:07Z</time>
      </trkpt>
      <trkpt lat="57.67450000" lon="12.01657000">
        <ele>136.00000</ele>
        <time>2015-04-28T18:16:10Z</time>
      </trkpt>
      <trkpt lat="57.67453000" lon="12.01652000">
        <ele>134.00000</ele>
        <time>2015-04-28T18:16:13Z</time>
      </trkpt>
      <trkpt lat="57.67455000" lon="12.01652000">
        <ele>132.00000</ele>
        <time>2015-04-28T18:16:16Z</time>
      </trkpt>
      <trkpt lat="57.67460000" lon="12.01657000">
        <ele>131.00000</ele>
        <time>2015-04-28T18:16:20Z</time>
      </trkpt>
      <trkpt lat="57.67470000" lon="12.01654000">
        <ele>130.00000</ele>
        <time>2015-04-28T18:16:23Z</time>
      </trkpt>
      <trkpt lat="57.67476000" lon="12.01644000">
        <ele>127.00000</ele>
        <time>2015-04-28T18:16:26Z</time>
      </trkpt>
      <trkpt lat="57.67477000" lon="12.01640000">
        <ele>126.00000</ele>
        <time>2015-04-28T18:16:37Z</time>
      </trkpt>
      <trkpt lat="57.67486000" lon="12.01634000">
        <ele>126.00000</ele>
        <time>2015-04-28T18:16:42Z</time>
      </trkpt>
      <trkpt lat="57.67495000" lon="12.01624000">
        <ele>126.00000</ele>
        <time>2015-04-28T18:16:45Z</time>
      </trkpt>
      <trkpt lat="57.67504000" lon="12.01614000">
        <ele>124.00000</ele>
        <time>2015-04-28T18:16:48Z</time>
      </trkpt>
      <trkpt lat="57.67516000" lon="12.01599000">
        <ele>123.00000</ele>
        <time>2015-04-28T18:16:52Z</time>
      </trkpt>
      <trkpt lat="57.67527000" lon="12.01584000">
        <ele>122.00000</ele>
        <time>2015-04-28T18:16:55Z</time>
      </trkpt>
      <trkpt lat="57.67533000" lon="12.01583000">
        <ele>120.00000</ele>
        <time>2015-04-28T18:16:58Z</time>
      </trkpt>
      <trkpt lat="57.67537000" lon="12.01602000">
        <ele>119.00000</ele>
        <time>2015-04-28T18:17:04Z</time>
      </trkpt>
      <trkpt lat="57.67547000" lon="12.01608000">
        <ele>120.00000</ele>
        <time>2015-04-28T18:17:09Z</time>
      </trkpt>
      <trkpt lat="57.67559000" lon="12.01604000">
        <ele>122.00000</ele>
        <time>2015-04-28T18:17:27Z</time>
      </trkpt>
      <trkpt lat="57.67570000" lon="12.01590000">
        <ele>122.00000</ele>
        <time>2015-04-28T18:17:31Z</time>
      </trkpt>
      <trkpt lat="57.67581000" lon="12.01579000">
        <ele>122.00000</ele>
        <time>2015-04-28T18:17:35Z</time>
      </trkpt>
      <trkpt lat="57.67587000" lon="12.01587000">
        <ele>122.00000</ele>
        <time>2015-04-28T18:17:39Z</time>
      </trkpt>
      <trkpt lat="57.67596000" lon="12.01598000">
        <ele>122.00000</ele>
        <time>2015-04-28T18:17:43Z</time>
      </trkpt>
      <trkpt lat="57.67603000" lon="12.01594000">
        <ele>120.00000</ele>
        <time>2015-04-28T18:17:46Z</time>
      </trkpt>
      <trkpt lat="57.67611000" lon="12.01580000">
        <ele>118.00000</ele>
        <time>2015-04-28T18:17:49Z</time>
      </trkpt>
      <trkpt lat="57.67614000" lon="12.01566000">
        <ele>116.00000</ele>
        <time>2015-04-28T18:17:52Z</time>
      </trkpt>
      <trkpt lat="57.67620000" lon="12.01563000">
        <ele>114.00000</ele>
        <time>2015-04-28T18:17:55Z</time>
      </trkpt>
      <trkpt lat="57.67629000" lon="12.01554000">
        <ele>112.00000</ele>
        <time>2015-04-28T18:17:58Z</time>
      </trkpt>
      <trkpt lat="57.67632000" lon="12.01545000">
        <ele>110.00000</ele>
        <time>2015-04-28T18:18:01Z</time>
      </trkpt>
      <trkpt lat="57.67635000" lon="12.01535000">
        <ele>108.00000</ele>
        <time>2015-04-28T18:18:04Z</time>
      </trkpt>
      <trkpt lat="57.67639000" lon="12.01528000">
        <ele>107.00000</ele>
        <time>2015-04-28T18:18:07Z</time>
      </trkpt>
      <trkpt lat="57.67643000" lon="12.01525000">
        <ele>104.00000</ele>
        <time>2015-04-28T18:18:10Z</time>
      </trkpt>
      <trkpt lat="57.67645000" lon="12.01526000">
        <ele>102.00000</ele>
        <time>2015-04-28T18:18:15Z</time>
      </trkpt>
      <trkpt lat="57.67648000" lon="12.01529000">
        <ele>101.00000</ele>
        <time>2015-04-28T18:18:18Z</time>
      </trkpt>
      <trkpt lat="57.67656000" lon="12.01522000">
        <ele>100.00000</ele>
        <time>2015-04-28T18:18:22Z</time>
      </trkpt>
      <trkpt lat="57.67662000" lon="12.01516000">
        <ele>98.000000</ele>
        <time>2015-04-28T18:18:25Z</time>
      </trkpt>
      <trkpt lat="57.67662000" lon="12.01505000">
        <ele>97.000000</ele>
        <time>2015-04-28T18:18:28Z</time>
      </trkpt>
      <trkpt lat="57.67667000" lon="12.01487000">
        <ele>95.000000</ele>
        <time>2015-04-28T18:18:31Z</time>
      </trkpt>
      <trkpt lat="57.67672000" lon="12.01472000">
        <ele>93.000000</ele>
        <time>2015-04-28T18:18:34Z</time>
      </trkpt>
      <trkpt lat="57.67670000" lon="12.01460000">
        <ele>91.000000</ele>
        <time>2015-04-28T18:18:37Z</time>
      </trkpt>
      <trkpt lat="57.67664000" lon="12.01456000">
        <ele>90.000000</ele>
        <time>2015-04-28T18:18:41Z</time>
      </trkpt>
      <trkpt lat="57.67659000" lon="12.01451000">
        <ele>91.000000</ele>
        <time>2015-04-28T18:18:44Z</time>
      </trkpt>
      <trkpt lat="57.67654000" lon="12.01447000">
        <ele>93.000000</ele>
        <time>2015-04-28T18:18:47Z</time>
      </trkpt>
      <trkpt lat="57.67647000" lon="12.01436000">
        <ele>94.000000</ele>
        <time>2015-04-28T18:18:51Z</time>
      </trkpt>
      <trkpt lat="57.67635000" lon="12.01411000">
        <ele>94.000000</ele>
        <time>2015-04-28T18:18:57Z</time>
      </trkpt>
      <trkpt lat="57.67632000" lon="12.01391000">
        <ele>96.000000</ele>
        <time>2015-04-28T18:19:00Z</time>
      </trkpt>
      <trkpt lat="57.67615000" lon="12.01370000">
        <ele>96.000000</ele>
        <time>2015-04-28T18:19:06Z</time>
      </trkpt>
      <trkpt lat="57.67603000" lon="12.01357000">
        <ele>95.000000</ele>
        <time>2015-04-28T18:19:09Z</time>
      </trkpt>
      <trkpt lat="57.67594000" lon="12.01354000">
        <ele>94.000000</ele>
        <time>2015-04-28T18:19:12Z</time>
      </trkpt>
      <trkpt lat="57.67583000" lon="12.01354000">
        <ele>92.000000</ele>
        <time>2015-04-28T18:19:15Z</time>
      </trkpt>
      <trkpt lat="57.67577000" lon="12.01357000">
        <ele>91.000000</ele>
        <time>2015-04-28T18:19:18Z</time>
      </trkpt>
      <trkpt lat="57.67570000" lon="12.01365000">
        <ele>89.000000</ele>
        <time>2015-04-28T18:19:21Z</time>
      </trkpt>
      <trkpt lat="57.67561000" lon="12.01369000">
        <ele>86.000000</ele>
        <time>2015-04-28T18:19:24Z</time>
      </trkpt>
      <trkpt lat="57.67557000" lon="12.01378000">
        <ele>83.000000</ele>
        <time>2015-04-28T18:19:27Z</time>
      </trkpt>
      <trkpt lat="57.67554000" lon="12.01385000">
        <ele>81.000000</ele>
        <time>2015-04-28T18:19:30Z</time>
      </trkpt>
      <trkpt lat="57.67550000" lon="12.01388000">
        <ele>79.000000</ele>
        <time>2015-04-28T18:19:33Z</time>
      </trkpt>
      <trkpt lat="57.67546000" lon="12.01387000">
        <ele>77.000000</ele>
        <time>2015-04-28T18:19:36Z</time>
      </trkpt>
      <trkpt lat="57.67539000" lon="12.01381000">
        <ele>76.000000</ele>
        <time>2015-04-28T18:19:39Z</time>
      </trkpt>
      <trkpt lat="57.67534000" lon="12.01382000">
        <ele>73.000000</ele>
        <time>2015-04-28T18:19:42Z</time>
      </trkpt>
      <trkpt lat="57.67528000" lon="12.01381000">
        <ele>71.000000</ele>
        <time>2015-04-28T18:19:45Z</time>
      </trkpt>
      <trkpt lat="57.67519000" lon="12.01382000">
        <ele>68.000000</ele>
        <time>2015-04-28T18:19:48Z</time>
      </trkpt>
      <trkpt lat="57.67511000" lon="12.01383000">
        <ele>66.000000</ele>
        <time>2015-04-28T18:19:51Z</time>
      </trkpt>
      <trkpt lat="57.67502000" lon="12.01386000">
        <ele>65.000000</ele>
        <time>2015-04-28T18:19:53Z</time>
      </trkpt>
    </trkseg>
  </trk>
</gpx>

